Terminal Aerodrome Forecast
Issued by NWS Glasgow, MT

Home | Current Version | Previous Version | Text Only | Print | Product List | Glossary On
Versions: 1 2 3 4 5 6 7 8 9 10 11 12 13 14 15 16 17 18 19 20
000
FTUS45 KGGW 030500
TAFGGW
TAF
KGGW 030522Z 0306/0406 08007KT P6SM VCSH FEW030 SCT070 BKN110
     FM031600 12012KT P6SM SCT120 BKN150
     FM040400 09014KT P6SM FEW250=

USA.gov is the U.S. government's official web portal to all federal, state and local government web resources and services.